createdAt,value
2022-11-24T00:02:05.107Z,99669.75
2022-11-24T00:07:07.521Z,99608.22
2022-11-24T00:12:09.915Z,99599.97
2022-11-24T00:17:12.622Z,99666.63
2022-11-24T00:22:14.851Z,99624.81
2022-11-24T00:27:17.171Z,99659.94
2022-11-24T00:32:19.472Z,99656.63
2022-11-24T00:37:21.812Z,99681.06
2022-11-24T00:42:24.192Z,99699.81
2022-11-24T00:47:26.378Z,99692.56
2022-11-24T00:52:28.718Z,99705.03
2022-11-24T00:57:31.064Z,99659.00
2022-11-24T01:02:33.441Z,99663.75
2022-11-24T01:07:36.167Z,99676.91
2022-11-24T01:12:39.578Z,99701.03
2022-11-24T01:17:41.838Z,99650.44
2022-11-24T01:22:44.287Z,99713.19
2022-11-24T01:27:46.695Z,99699.19
2022-11-24T01:32:48.986Z,99662.94
2022-11-24T01:37:51.181Z,99661.72
2022-11-24T01:42:53.809Z,99684.81
2022-11-24T01:47:56.499Z,99623.16
2022-11-24T01:52:59.310Z,99712.44
2022-11-24T01:58:08.534Z,99698.09
2022-11-24T02:03:15.809Z,99660.31
2022-11-24T02:08:26.634Z,99674.50
2022-11-24T02:13:28.995Z,99694.31
2022-11-24T02:18:31.374Z,99633.34
2022-11-24T02:23:59.059Z,99637.00
2022-11-24T02:29:01.459Z,99673.44
2022-11-24T02:34:03.807Z,99668.91
2022-11-24T02:39:13.658Z,99703.66
2022-11-24T02:44:18.265Z,99690.63
2022-11-24T02:49:20.398Z,99714.59
2022-11-24T02:54:22.720Z,99678.28
2022-11-24T02:59:25.069Z,99693.75
2022-11-24T03:04:27.404Z,99631.56
2022-11-24T03:09:31.755Z,99693.16
2022-11-24T03:14:34.245Z,99670.28
2022-11-24T03:19:36.678Z,99629.91
2022-11-24T03:24:38.996Z,99648.44
2022-11-24T03:29:41.343Z,99695.75
2022-11-24T03:34:43.691Z,99656.69
2022-11-24T03:39:46.016Z,99645.97
2022-11-24T03:44:48.404Z,99704.28
2022-11-24T03:49:50.677Z,99641.00
2022-11-24T03:54:54.218Z,99687.63
2022-11-24T03:59:56.387Z,99697.75
2022-11-24T04:04:59.694Z,99685.63
2022-11-24T04:10:01.943Z,99669.53
2022-11-24T04:15:04.468Z,99712.69
2022-11-24T04:20:07.401Z,99741.19
2022-11-24T04:25:10.927Z,99669.81
2022-11-24T04:30:13.447Z,99726.28
2022-11-24T04:35:15.774Z,99707.78
2022-11-24T04:40:18.648Z,99669.88
2022-11-24T04:45:20.830Z,99698.78
2022-11-24T04:50:23.165Z,99734.19
2022-11-24T04:55:25.378Z,99681.34
2022-11-24T05:00:27.574Z,99708.03
2022-11-24T05:05:29.937Z,99734.28
2022-11-24T05:10:37.761Z,99738.31
2022-11-24T05:15:42.079Z,99719.91
2022-11-24T05:20:47.446Z,99762.53
2022-11-24T05:25:49.811Z,99718.41
2022-11-24T05:30:52.083Z,99771.28
2022-11-24T05:35:54.842Z,99702.97
2022-11-24T05:41:06.243Z,99746.25
2022-11-24T05:46:08.574Z,99727.47
2022-11-24T05:51:10.891Z,99740.38
2022-11-24T05:56:13.156Z,99744.06
2022-11-24T06:01:15.493Z,99748.94
2022-11-24T06:06:17.811Z,99763.84
2022-11-24T06:11:23.002Z,99822.03
2022-11-24T06:16:25.389Z,99807.75
2022-11-24T06:21:28.741Z,99815.78
2022-11-24T06:26:31.015Z,99813.84
2022-11-24T06:31:33.897Z,99831.41
2022-11-24T06:36:36.178Z,99812.63
2022-11-24T06:41:38.648Z,99811.25
2022-11-24T06:46:40.986Z,99793.75
2022-11-24T06:51:43.512Z,99857.63
2022-11-24T06:56:45.788Z,99878.34
2022-11-24T07:01:48.231Z,99865.66
2022-11-24T07:06:50.908Z,99869.75
2022-11-24T07:11:56.485Z,99851.09
2022-11-24T07:16:58.689Z,99845.06
2022-11-24T07:22:00.956Z,99842.25
2022-11-24T07:27:03.341Z,99859.91
2022-11-24T07:32:05.979Z,99871.81
2022-11-24T07:37:08.316Z,99878.69
2022-11-24T07:42:11.900Z,99886.63
2022-11-24T07:47:14.221Z,99871.97
2022-11-24T07:52:16.374Z,99863.59
2022-11-24T07:57:18.503Z,99892.41
2022-11-24T08:02:20.670Z,99933.47
2022-11-24T08:07:22.937Z,99942.41
2022-11-24T08:12:25.595Z,99928.88
2022-11-24T08:17:29.577Z,99928.34
2022-11-24T08:22:31.875Z,99929.84
2022-11-24T08:27:34.276Z,99938.97
2022-11-24T08:32:36.528Z,99863.97
2022-11-24T08:37:38.866Z,99910.31
2022-11-24T08:42:41.175Z,99909.28
2022-11-24T08:47:43.458Z,99893.81
2022-11-24T08:52:45.640Z,99935.16
2022-11-24T08:57:48.047Z,99892.56
2022-11-24T09:02:55.556Z,99904.97
2022-11-24T09:07:58.865Z,99900.38
2022-11-24T09:13:01.071Z,99906.59
2022-11-24T09:18:03.287Z,99881.13
2022-11-24T09:23:05.573Z,99881.06
2022-11-24T09:28:08.044Z,99881.66
2022-11-24T09:33:10.708Z,99885.09
2022-11-24T09:38:13.895Z,99843.69
2022-11-24T09:43:36.136Z,99889.16
2022-11-24T09:48:46.522Z,99878.28
2022-11-24T09:54:16.907Z,99825.03
2022-11-24T09:59:21.412Z,99874.31
2022-11-24T10:04:28.888Z,99840.78
2022-11-24T10:10:12.666Z,99855.47
2022-11-24T10:15:27.961Z,99854.75
2022-11-24T10:20:50.015Z,99850.41
2022-11-24T10:26:05.768Z,99839.81
2022-11-24T10:31:33.819Z,99811.00
2022-11-24T10:37:07.168Z,99829.31
2022-11-24T10:42:20.137Z,99829.91
2022-11-24T11:09:27.878Z,99771.09
2022-11-24T11:14:37.001Z,99812.44
2022-11-24T11:19:49.742Z,99786.38
2022-11-24T11:31:19.667Z,99790.50
2022-11-24T12:04:54.607Z,99784.44
2022-11-24T12:15:53.848Z,99789.13
2022-11-24T12:26:55.148Z,99791.31
2022-11-24T12:37:40.015Z,99794.94
2022-11-24T12:43:17.108Z,99782.03
2022-11-24T12:48:36.354Z,99795.59
2022-11-24T12:53:40.665Z,99787.94
2022-11-24T13:04:18.735Z,99793.19
2022-11-24T13:09:21.086Z,99721.88
2022-11-24T13:14:34.803Z,99739.88
2022-11-24T13:19:38.009Z,99765.28
2022-11-24T13:24:41.331Z,99757.97
2022-11-24T13:29:45.798Z,99778.59
2022-11-24T13:34:55.473Z,99780.53
2022-11-24T13:40:18.392Z,99768.31
2022-11-24T13:45:42.203Z,99786.56
2022-11-24T13:50:50.532Z,99793.44
2022-11-24T13:56:01.297Z,99792.66
2022-11-24T14:01:09.555Z,99792.97
2022-11-24T14:06:48.790Z,99789.25
2022-11-24T14:12:15.836Z,99798.63
2022-11-24T14:17:27.992Z,99779.69
2022-11-24T14:22:43.853Z,99779.88
2022-11-24T14:27:46.599Z,99774.94
2022-11-24T14:32:58.910Z,99820.97
2022-11-24T14:38:06.469Z,99812.91
2022-11-24T14:43:23.064Z,99821.69
2022-11-24T14:48:38.769Z,99810.63
2022-11-24T14:53:46.569Z,99831.72
2022-11-24T14:58:49.781Z,99818.81
2022-11-24T15:04:38.862Z,99841.06
2022-11-24T15:10:01.513Z,99855.56
2022-11-24T15:15:20.457Z,99869.38
2022-11-24T15:20:42.017Z,99870.28
2022-11-24T15:25:44.441Z,99816.09
2022-11-24T15:30:46.642Z,99827.00
2022-11-24T15:35:49.728Z,99880.94
2022-11-24T15:40:54.929Z,99896.16
2022-11-24T15:45:58.337Z,99891.84
2022-11-24T15:51:04.257Z,99901.88
2022-11-24T15:56:15.972Z,99908.31
2022-11-24T16:01:18.415Z,99903.72
2022-11-24T16:06:24.952Z,99892.66
2022-11-24T16:11:28.289Z,99948.09
2022-11-24T16:16:30.569Z,99916.41
2022-11-24T16:21:33.036Z,99939.66
2022-11-24T16:26:35.504Z,99956.50
2022-11-24T16:31:38.461Z,99954.72
2022-11-24T16:36:40.821Z,99961.03
2022-11-24T16:41:43.206Z,99899.91
2022-11-24T16:46:45.580Z,99958.38
2022-11-24T16:51:47.779Z,99967.47
2022-11-24T16:56:50.222Z,99973.81
2022-11-24T17:01:52.842Z,99998.88
2022-11-24T17:06:55.298Z,99972.69
2022-11-24T17:11:57.572Z,99964.47
2022-11-24T17:16:59.904Z,99983.06
2022-11-24T17:22:02.218Z,99993.03
2022-11-24T17:27:04.639Z,99977.84
2022-11-24T17:32:06.930Z,99978.97
2022-11-24T17:37:09.404Z,100023.22
2022-11-24T17:42:11.843Z,100008.59
2022-11-24T17:47:15.494Z,99961.72
2022-11-24T17:52:18.634Z,100017.06
2022-11-24T17:57:20.907Z,100029.69
2022-11-24T18:02:23.281Z,100007.00
2022-11-24T18:07:25.734Z,100023.53
2022-11-24T18:12:28.034Z,100021.28
2022-11-24T18:17:30.322Z,100005.81
2022-11-24T18:22:57.889Z,100042.44
2022-11-24T18:27:54.989Z,100022.38
2022-11-24T18:32:59.103Z,99994.06
2022-11-24T18:38:01.377Z,100034.16
2022-11-24T18:43:03.641Z,100042.88
2022-11-24T18:48:06.244Z,100061.47
2022-11-24T18:53:08.556Z,100038.50
2022-11-24T18:58:10.825Z,100083.44
2022-11-24T19:03:13.004Z,100056.47
2022-11-24T19:08:15.284Z,100076.78
2022-11-24T19:13:17.714Z,100088.53
2022-11-24T19:18:21.671Z,100097.88
2022-11-24T19:23:24.161Z,100045.72
2022-11-24T19:28:26.682Z,100089.78
2022-11-24T19:33:29.079Z,100037.63
2022-11-24T19:38:33.237Z,100062.84
2022-11-24T19:43:35.999Z,100107.53
2022-11-24T19:48:40.458Z,100130.31
2022-11-24T19:53:43.864Z,100084.34
2022-11-24T19:58:47.920Z,100115.38
2022-11-24T20:03:55.764Z,100117.63
2022-11-24T20:09:01.088Z,100166.84
2022-11-24T20:14:04.262Z,100176.94
2022-11-24T20:19:11.128Z,100163.03
2022-11-24T20:24:15.987Z,100186.38
2022-11-24T20:29:19.282Z,100182.25
2022-11-24T20:34:23.064Z,100165.56
2022-11-24T20:39:28.301Z,100187.31
2022-11-24T20:44:30.866Z,100167.16
2022-11-24T20:49:33.472Z,100164.59
2022-11-24T20:54:36.170Z,100166.19
2022-11-24T20:59:38.701Z,100165.72
2022-11-24T21:04:41.111Z,100182.84
2022-11-24T21:09:43.412Z,100194.56
2022-11-24T21:14:45.831Z,100159.28
2022-11-24T21:19:48.092Z,100181.09
2022-11-24T21:24:50.525Z,100224.25
2022-11-24T21:29:53.017Z,100189.94
2022-11-24T21:34:55.682Z,100212.34
2022-11-24T21:39:58.066Z,100197.25
2022-11-24T21:45:02.652Z,100236.88
2022-11-24T21:50:09.398Z,100221.88
2022-11-24T21:55:11.624Z,100222.25
2022-11-24T22:00:14.761Z,100238.50
2022-11-24T22:05:16.931Z,100234.28
2022-11-24T22:10:19.335Z,100230.00
2022-11-24T22:15:21.551Z,100218.09
2022-11-24T22:20:23.785Z,100242.97
2022-11-24T22:25:26.156Z,100234.28
2022-11-24T22:30:28.491Z,100197.19
2022-11-24T22:35:30.765Z,100273.34
2022-11-24T22:40:32.916Z,100253.97
2022-11-24T22:45:36.184Z,100283.34
2022-11-24T22:50:38.415Z,100290.38
2022-11-24T22:55:40.755Z,100290.09
2022-11-24T23:00:43.144Z,100256.56
2022-11-24T23:05:45.532Z,100238.09
2022-11-24T23:10:47.741Z,100259.72
2022-11-24T23:15:49.923Z,100257.31
2022-11-24T23:20:52.123Z,100284.94
2022-11-24T23:25:54.581Z,100317.25
2022-11-24T23:31:07.997Z,100324.94
2022-11-24T23:36:20.899Z,100329.34
2022-11-24T23:41:25.783Z,100345.06
2022-11-24T23:46:28.650Z,100276.97
2022-11-24T23:51:33.384Z,100367.50
2022-11-24T23:56:35.675Z,100331.75
